createdAt,value
2022-09-14T00:01:45.313Z,14.99
2022-09-14T00:04:47.687Z,14.97
2022-09-14T00:07:50.232Z,15.14
2022-09-14T00:10:52.542Z,15.23
2022-09-14T00:13:57.112Z,15.25
2022-09-14T00:16:59.429Z,15.27
2022-09-14T00:20:02.311Z,15.26
2022-09-14T00:23:05.286Z,15.21
2022-09-14T00:26:13.640Z,15.15
2022-09-14T00:29:16.503Z,15.07
2022-09-14T00:32:18.617Z,14.94
2022-09-14T00:35:20.974Z,14.74
2022-09-14T00:38:26.354Z,14.64
2022-09-14T00:41:33.528Z,14.59
2022-09-14T00:44:35.506Z,14.57
2022-09-14T00:47:37.907Z,14.56
2022-09-14T00:50:40.001Z,14.50
2022-09-14T00:53:42.995Z,14.43
2022-09-14T00:56:47.747Z,14.41
2022-09-14T00:59:52.100Z,14.44
2022-09-14T01:02:54.405Z,14.47
2022-09-14T01:06:18.252Z,14.49
2022-09-14T01:09:35.666Z,14.50
2022-09-14T01:12:49.466Z,14.47
2022-09-14T01:16:07.879Z,14.57
2022-09-14T01:19:38.743Z,14.60
2022-09-14T01:22:46.654Z,14.59
2022-09-14T01:26:04.126Z,14.55
2022-09-14T01:29:15.616Z,14.54
2022-09-14T01:33:02.683Z,14.39
2022-09-14T01:36:08.299Z,14.36
2022-09-14T01:39:11.968Z,14.36
2022-09-14T01:42:14.947Z,14.38
2022-09-14T01:45:21.112Z,14.27
2022-09-14T01:48:33.029Z,14.17
2022-09-14T01:51:41.031Z,14.28
2022-09-14T01:54:46.002Z,14.36
2022-09-14T01:57:53.517Z,14.38
2022-09-14T02:00:57.682Z,14.31
2022-09-14T02:04:06.521Z,14.27
2022-09-14T02:07:09.278Z,14.19
2022-09-14T02:10:15.120Z,14.00
2022-09-14T02:13:17.550Z,14.04
2022-09-14T02:16:21.348Z,14.06
2022-09-14T02:19:26.050Z,14.09
2022-09-14T02:22:29.871Z,14.23
2022-09-14T02:25:32.761Z,14.08
2022-09-14T02:28:35.249Z,14.23
2022-09-14T02:32:04.608Z,14.29
2022-09-14T02:35:21.769Z,14.27
2022-09-14T02:38:45.755Z,14.22
2022-09-14T02:41:54.909Z,14.27
2022-09-14T02:45:06.324Z,14.05
2022-09-14T02:48:18.661Z,14.04
2022-09-14T02:51:33.742Z,14.23
2022-09-14T02:55:07.749Z,14.24
2022-09-14T02:58:12.695Z,14.21
2022-09-14T03:01:18.340Z,14.42
2022-09-14T03:04:20.714Z,14.40
2022-09-14T03:07:22.745Z,14.46
2022-09-14T03:10:25.133Z,14.55
2022-09-14T03:13:27.383Z,14.58
2022-09-14T03:16:29.747Z,14.58
2022-09-14T03:19:31.862Z,14.70
2022-09-14T03:22:34.292Z,14.74
2022-09-14T03:25:38.946Z,14.68
2022-09-14T03:28:41.366Z,14.76
2022-09-14T03:31:43.462Z,14.81
2022-09-14T03:34:45.861Z,14.93
2022-09-14T03:37:47.881Z,14.99
2022-09-14T03:40:50.326Z,15.18
2022-09-14T03:43:52.712Z,15.25
2022-09-14T03:46:55.457Z,15.24
2022-09-14T03:49:57.609Z,15.22
2022-09-14T03:52:59.933Z,15.14
2022-09-14T03:56:10.727Z,15.19
2022-09-14T03:59:13.065Z,15.13
2022-09-14T04:02:15.177Z,15.17
2022-09-14T04:05:21.615Z,15.22
2022-09-14T04:08:24.131Z,15.06
2022-09-14T04:11:26.553Z,15.03
2022-09-14T04:14:28.599Z,15.00
2022-09-14T04:17:30.961Z,14.81
2022-09-14T04:20:33.095Z,14.95
2022-09-14T04:23:51.366Z,14.84
2022-09-14T04:26:58.482Z,14.89
2022-09-14T04:30:00.793Z,15.00
2022-09-14T04:33:02.849Z,14.99
2022-09-14T04:36:08.517Z,14.95
2022-09-14T04:39:13.591Z,14.92
2022-09-14T04:42:16.013Z,14.91
2022-09-14T04:45:18.158Z,14.90
2022-09-14T04:48:20.609Z,14.94
2022-09-14T04:51:28.543Z,14.98
2022-09-14T04:54:30.859Z,15.14
2022-09-14T04:57:32.961Z,15.32
2022-09-14T05:00:36.372Z,15.40
2022-09-14T05:03:39.713Z,15.57
2022-09-14T05:06:43.234Z,15.59
2022-09-14T05:09:45.487Z,15.57
2022-09-14T05:12:47.781Z,15.69
2022-09-14T05:15:50.896Z,15.71
2022-09-14T05:18:58.806Z,15.72
2022-09-14T05:22:00.878Z,15.78
2022-09-14T05:25:03.222Z,15.72
2022-09-14T05:28:05.326Z,15.72
2022-09-14T05:31:10.282Z,15.80
2022-09-14T05:34:12.869Z,15.92
2022-09-14T05:37:15.318Z,16.01
2022-09-14T05:40:17.488Z,16.03
2022-09-14T05:43:20.291Z,16.12
2022-09-14T05:46:22.483Z,16.12
2022-09-14T05:49:25.268Z,16.17
2022-09-14T05:52:29.741Z,16.09
2022-09-14T05:55:32.483Z,16.03
2022-09-14T05:58:36.848Z,16.00
2022-09-14T06:01:40.051Z,16.03
2022-09-14T06:04:42.547Z,16.23
2022-09-14T06:07:44.869Z,16.51
2022-09-14T06:10:47.285Z,17.02
2022-09-14T06:13:50.346Z,17.51
2022-09-14T06:16:52.771Z,18.00
2022-09-14T06:19:54.878Z,18.03
2022-09-14T06:22:57.192Z,18.15
2022-09-14T06:26:01.357Z,18.27
2022-09-14T06:29:04.033Z,18.26
2022-09-14T06:32:06.165Z,18.22
2022-09-14T06:35:12.314Z,17.83
2022-09-14T06:38:14.913Z,17.81
2022-09-14T06:41:20.396Z,17.93
2022-09-14T06:44:22.543Z,18.26
2022-09-14T06:47:24.915Z,18.17
2022-09-14T06:50:27.366Z,17.74
2022-09-14T06:53:29.768Z,17.71
2022-09-14T06:56:34.999Z,17.49
2022-09-14T06:59:37.307Z,17.38
2022-09-14T07:02:39.477Z,17.45
2022-09-14T07:05:42.261Z,17.14
2022-09-14T07:08:44.863Z,17.03
2022-09-14T07:11:47.633Z,16.80
2022-09-14T07:14:49.749Z,16.59
2022-09-14T07:17:52.086Z,16.41
2022-09-14T07:20:55.261Z,16.31
2022-09-14T07:23:57.797Z,16.11
2022-09-14T07:27:00.032Z,16.09
2022-09-14T07:30:02.553Z,16.13
2022-09-14T07:33:05.647Z,16.09
2022-09-14T07:36:09.948Z,16.02
2022-09-14T07:39:14.871Z,16.17
2022-09-14T07:42:17.186Z,16.28
2022-09-14T07:45:20.066Z,16.54
2022-09-14T07:48:23.445Z,16.69
2022-09-14T07:51:26.024Z,16.84
2022-09-14T07:54:29.284Z,16.96
2022-09-14T07:57:54.663Z,16.94
2022-09-14T08:00:59.457Z,17.07
2022-09-14T08:04:05.435Z,16.88
2022-09-14T08:07:07.850Z,16.84
2022-09-14T08:10:09.769Z,17.08
2022-09-14T08:13:12.794Z,17.27
2022-09-14T08:16:15.123Z,17.40
2022-09-14T08:19:20.308Z,17.24
2022-09-14T08:22:22.590Z,17.10
2022-09-14T08:25:24.953Z,17.03
2022-09-14T08:28:26.928Z,17.28
2022-09-14T08:31:29.116Z,17.63
2022-09-14T08:34:31.517Z,17.80
2022-09-14T08:37:33.622Z,18.09
2022-09-14T08:40:42.384Z,18.27
2022-09-14T08:43:44.601Z,18.91
2022-09-14T08:47:04.676Z,19.47
2022-09-14T08:50:09.546Z,19.79
2022-09-14T08:53:11.611Z,19.88
2022-09-14T08:56:21.502Z,19.74
2022-09-14T08:59:39.245Z,20.29
2022-09-14T09:02:47.503Z,20.24
2022-09-14T09:05:58.929Z,20.40
2022-09-14T09:09:19.566Z,20.30
2022-09-14T09:12:27.158Z,20.23
2022-09-14T09:15:34.324Z,20.04
2022-09-14T09:18:44.805Z,20.06
2022-09-14T09:21:48.881Z,20.12
2022-09-14T09:24:54.992Z,20.44
2022-09-14T09:28:11.859Z,20.93
2022-09-14T09:31:15.989Z,21.20
2022-09-14T09:34:24.931Z,21.31
2022-09-14T09:37:26.917Z,21.46
2022-09-14T09:40:36.569Z,21.26
2022-09-14T09:44:06.821Z,21.87
2022-09-14T09:47:09.209Z,22.16
2022-09-14T09:50:14.550Z,21.46
2022-09-14T09:53:21.012Z,22.18
2022-09-14T09:56:26.226Z,22.59
2022-09-14T09:59:28.464Z,22.97
2022-09-14T10:02:32.086Z,22.46
2022-09-14T10:05:34.687Z,22.32
2022-09-14T10:08:43.592Z,22.07
2022-09-14T10:12:07.147Z,22.55
2022-09-14T10:15:18.745Z,22.78
2022-09-14T10:18:30.353Z,22.66
2022-09-14T10:21:32.502Z,22.26
2022-09-14T10:24:35.949Z,22.66
2022-09-14T10:27:39.749Z,23.15
2022-09-14T10:30:49.268Z,22.77
2022-09-14T10:33:56.375Z,23.05
2022-09-14T10:37:28.303Z,23.45
2022-09-14T10:40:38.451Z,23.73
2022-09-14T10:43:53.558Z,23.71
2022-09-14T10:47:10.344Z,23.35
2022-09-14T10:50:43.830Z,23.24
2022-09-14T10:54:06.818Z,22.86
2022-09-14T10:57:23.934Z,22.73
2022-09-14T11:00:31.119Z,22.95
2022-09-14T11:03:46.175Z,22.71
2022-09-14T11:07:19.273Z,22.50
2022-09-14T11:10:50.470Z,22.69
2022-09-14T11:14:24.539Z,22.47
2022-09-14T11:18:22.294Z,22.54
2022-09-14T11:21:32.932Z,22.55
2022-09-14T11:24:48.443Z,22.48
2022-09-14T11:27:59.121Z,22.70
2022-09-14T11:31:12.391Z,22.37
2022-09-14T11:34:23.499Z,22.33
2022-09-14T11:37:41.962Z,21.86
2022-09-14T11:41:00.420Z,21.87
2022-09-14T11:44:21.467Z,22.03
2022-09-14T11:47:24.743Z,21.99
2022-09-14T11:50:31.499Z,22.50
2022-09-14T11:53:34.026Z,22.69
2022-09-14T11:56:36.644Z,23.08
2022-09-14T11:59:41.677Z,23.33
2022-09-14T12:02:57.516Z,23.31
2022-09-14T12:06:31.935Z,23.22
2022-09-14T12:09:40.007Z,23.05
2022-09-14T12:12:54.592Z,23.33
2022-09-14T12:16:08.521Z,23.55
2022-09-14T12:19:18.026Z,23.86
2022-09-14T12:22:26.890Z,24.31
2022-09-14T12:25:29.261Z,24.42
2022-09-14T12:28:40.118Z,24.68
2022-09-14T12:31:47.334Z,24.39
2022-09-14T12:35:28.005Z,23.89
2022-09-14T12:38:30.285Z,24.21
2022-09-14T12:41:35.342Z,24.64
2022-09-14T12:44:43.259Z,24.81
2022-09-14T12:47:52.194Z,24.97
2022-09-14T12:50:55.085Z,24.36
2022-09-14T12:54:08.973Z,24.42
2022-09-14T12:57:27.184Z,24.36
2022-09-14T13:00:43.977Z,24.20
2022-09-14T13:03:50.253Z,24.35
2022-09-14T13:06:53.871Z,24.06
2022-09-14T13:09:58.393Z,24.01
2022-09-14T13:13:02.919Z,24.19
2022-09-14T13:16:07.348Z,24.07
2022-09-14T13:19:38.955Z,24.22
2022-09-14T13:22:42.822Z,24.22
2022-09-14T13:25:45.049Z,24.09
2022-09-14T13:28:50.949Z,24.11
2022-09-14T13:31:53.534Z,23.83
2022-09-14T13:34:56.118Z,24.05
2022-09-14T13:38:00.015Z,24.14
2022-09-14T13:41:11.457Z,23.99
2022-09-14T13:44:14.253Z,23.86
2022-09-14T13:47:20.070Z,24.06
2022-09-14T13:50:25.315Z,24.13
2022-09-14T13:53:50.606Z,24.14
2022-09-14T13:57:13.469Z,24.22
2022-09-14T14:00:20.285Z,24.16
2022-09-14T14:03:30.602Z,24.04
2022-09-14T14:06:35.659Z,24.08
2022-09-14T14:09:42.644Z,24.19
2022-09-14T14:12:47.777Z,24.13
2022-09-14T14:15:56.066Z,23.87
2022-09-14T14:18:58.655Z,24.03
2022-09-14T14:22:16.147Z,24.25
2022-09-14T14:25:19.721Z,24.53
2022-09-14T14:28:30.517Z,24.51
2022-09-14T14:31:32.699Z,24.60
2022-09-14T14:34:35.083Z,24.53
2022-09-14T14:37:37.126Z,24.28
2022-09-14T14:40:40.702Z,24.52
2022-09-14T14:43:46.126Z,24.44
2022-09-14T14:46:48.557Z,24.42
2022-09-14T14:49:50.497Z,24.34
2022-09-14T14:52:53.205Z,24.39
2022-09-14T14:55:55.307Z,24.28
2022-09-14T14:59:01.947Z,24.03
2022-09-14T15:02:05.456Z,23.68
2022-09-14T15:05:08.304Z,23.52
2022-09-14T15:08:19.820Z,23.55
2022-09-14T15:11:22.714Z,23.53
2022-09-14T15:14:27.657Z,23.41
2022-09-14T15:17:30.682Z,23.52
